Time;durP1;ratioP1;P1;durP2;ratioP2;P2;SDS_P1;SDS_P2;PMS_P1;PMS_P2;Temp;Humidity;BMP_temperature;BMP_pressure;BME280_temperature;BME280_humidity;BME280_pressure;Samples;Min_cycle;Max_cycle;Signal;HPM_P1;HPM_P2
2022/11/28 00:01:18;;;;;;;17.03;15.63;;;;;;;2.38;100.00;93313.88;5090758;28;20216;-70
2022/11/28 00:03:43;;;;;;;15.10;13.80;;;;;;;1.91;100.00;93235.41;5096974;28;20223;-70
2022/11/28 00:06:09;;;;;;;15.33;14.03;;;;;;;2.51;100.00;93311.16;5091168;28;20228;-70
2022/11/28 00:08:35;;;;;;;15.63;14.23;;;;;;;2.62;100.00;93310.44;5091628;28;20177;-69
2022/11/28 00:11:05;;;;;;;16.53;15.07;;;;;;;2.50;100.00;93289.78;5091228;28;20220;-69
2022/11/28 00:13:31;;;;;;;15.17;13.93;;;;;;;2.56;100.00;93306.94;5081529;28;20177;-69
2022/11/28 00:15:57;;;;;;;15.40;14.13;;;;;;;2.48;100.00;93290.97;5088227;28;20974;-69
2022/11/28 00:18:23;;;;;;;15.27;13.83;;;;;;;2.56;100.00;93306.16;5081655;28;20220;-69
2022/11/28 00:20:48;;;;;;;16.37;14.97;;;;;;;2.43;100.00;93306.28;5089206;28;20212;-69
2022/11/28 00:23:13;;;;;;;15.13;13.93;;;;;;;2.37;100.00;93307.91;5092183;28;20204;-69
2022/11/28 00:25:39;;;;;;;15.30;14.20;;;;;;;2.42;100.00;93308.06;5090608;28;20221;-69
2022/11/28 00:28:04;;;;;;;14.77;13.77;;;;;;;2.32;100.00;93304.41;5091444;28;20196;-69
2022/11/28 00:30:30;;;;;;;14.93;13.73;;;;;;;2.38;100.00;93301.75;5090170;28;20220;-69
2022/11/28 00:32:55;;;;;;;14.37;13.17;;;;;;;2.35;100.00;93311.72;5081158;28;20185;-68
2022/11/28 00:35:20;;;;;;;14.27;13.07;;;;;;;2.28;100.00;93301.47;5090298;28;20259;-69
2022/11/28 00:37:46;;;;;;;14.10;12.97;;;;;;;2.36;100.00;93303.78;5091220;28;20202;-69
2022/11/28 00:40:11;;;;;;;16.57;15.13;;;;;;;2.35;100.00;93284.16;5090649;28;20285;-69
2022/11/28 00:42:37;;;;;;;14.90;13.70;;;;;;;2.36;100.00;93302.97;5091050;28;20264;-69
2022/11/28 00:45:02;;;;;;;15.10;14.00;;;;;;;2.35;100.00;93306.56;5089525;28;20248;-69
2022/11/28 00:47:28;;;;;;;23.30;14.17;;;;;;;2.23;100.00;93310.81;5090830;28;20176;-69
2022/11/28 00:49:53;;;;;;;13.93;12.93;;;;;;;2.21;100.00;93310.25;5086020;28;20260;-69
2022/11/28 00:52:18;;;;;;;14.00;12.90;;;;;;;2.18;100.00;93295.97;5089724;28;20197;-69
2022/11/28 00:54:44;;;;;;;14.13;13.23;;;;;;;2.31;100.00;93300.25;5091125;28;20240;-69
2022/11/28 00:57:09;;;;;;;14.13;13.03;;;;;;;2.40;100.00;93301.53;5091371;28;20897;-69
2022/11/28 00:59:34;;;;;;;13.73;12.63;;;;;;;2.26;100.00;93300.88;5090775;28;20196;-69
2022/11/28 01:02:00;;;;;;;12.73;11.93;;;;;;;2.26;100.00;93303.44;5091218;28;20268;-68
2022/11/28 01:04:26;;;;;;;13.17;12.27;;;;;;;2.36;100.00;93300.41;5090532;28;20201;-69
2022/11/28 01:06:52;;;;;;;13.67;12.77;;;;;;;2.36;100.00;93308.13;5091123;28;20204;-69
2022/11/28 01:09:22;;;;;;;13.13;12.13;;;;;;;2.25;100.00;93312.19;5090707;28;20193;-69
2022/11/28 01:11:50;;;;;;;14.00;12.93;;;;;;;2.26;100.00;93307.81;5091074;28;20208;-69
2022/11/28 01:14:18;;;;;;;12.63;11.93;;;;;;;2.29;100.00;93297.09;5090938;28;20188;-69
2022/11/28 01:16:44;;;;;;;13.67;12.67;;;;;;;2.37;100.00;93300.19;5090455;28;20205;-69
2022/11/28 01:19:10;;;;;;;12.33;11.53;;;;;;;2.42;100.00;93302.13;5090684;28;20188;-69
2022/11/28 01:21:36;;;;;;;14.60;13.60;;;;;;;2.34;100.00;93300.59;5090083;28;20227;-69
2022/11/28 01:24:02;;;;;;;14.30;13.20;;;;;;;2.44;100.00;93295.78;5090980;28;20180;-69
2022/11/28 01:26:29;;;;;;;13.90;13.00;;;;;;;2.40;100.00;93289.44;5090131;28;20244;-69
2022/11/28 01:28:55;;;;;;;13.13;12.13;;;;;;;2.33;100.00;93287.94;5090790;28;20181;-69
2022/11/28 01:31:23;;;;;;;15.30;14.20;;;;;;;2.39;100.00;93292.25;5089142;28;20227;-68
2022/11/28 01:33:49;;;;;;;13.63;12.63;;;;;;;2.37;100.00;93294.22;5090552;28;20203;-69
2022/11/28 01:36:16;;;;;;;14.37;13.37;;;;;;;2.39;100.00;93281.94;5089156;28;20245;-67
2022/11/28 01:38:41;;;;;;;13.53;12.63;;;;;;;2.53;100.00;93283.38;5090753;28;20192;-69
2022/11/28 01:41:07;;;;;;;12.57;11.63;;;;;;;2.47;100.00;93268.78;5090005;28;20217;-69
2022/11/28 01:43:33;;;;;;;14.00;13.03;;;;;;;2.45;100.00;93281.09;5090537;28;20256;-69
2022/11/28 01:45:59;;;;;;;13.30;12.50;;;;;;;2.43;100.00;93280.53;5089759;28;20212;-69
2022/11/28 01:48:39;;;;;;;14.00;13.00;;;;;;;2.46;100.00;93274.94;5090573;28;20195;-69
2022/11/28 01:51:08;;;;;;;12.10;11.40;;;;;;;2.26;100.00;93269.16;5088036;28;20754;-69
2022/11/28 01:53:38;;;;;;;12.67;11.87;;;;;;;2.45;100.00;93274.16;5089463;28;20200;-69
2022/11/28 01:56:23;;;;;;;13.70;12.73;;;;;;;2.48;100.00;93271.16;5089562;28;20276;-69
2022/11/28 01:58:58;;;;;;;13.27;12.37;;;;;;;2.38;100.00;93273.41;5089966;28;20244;-69
2022/11/28 02:01:25;;;;;;;13.30;12.47;;;;;;;2.19;100.00;93263.31;5089579;28;20234;-68
2022/11/28 02:03:51;;;;;;;12.03;11.27;;;;;;;2.28;100.00;93275.69;5090238;28;20184;-69
2022/11/28 02:06:20;;;;;;;11.50;10.90;;;;;;;2.36;100.00;93270.28;5089700;28;20216;-69
2022/11/28 02:08:45;;;;;;;13.40;12.50;;;;;;;2.35;100.00;93273.84;5089303;28;20197;-69
2022/11/28 02:11:25;;;;;;;11.43;10.83;;;;;;;2.39;100.00;93271.63;5089390;28;20224;-69
2022/11/28 02:14:28;;;;;;;11.63;11.07;;;;;;;2.40;100.00;93268.03;5086131;28;20205;-69
2022/11/28 02:17:26;;;;;;;10.40;9.90;;;;;;;2.25;100.00;93270.97;5088642;28;20212;-69
2022/11/28 02:20:19;;;;;;;10.97;10.37;;;;;;;2.45;100.00;93261.28;5086243;28;20232;-69
2022/11/28 02:23:04;;;;;;;10.83;10.33;;;;;;;2.38;100.00;93260.53;5088035;28;20184;-69
2022/11/28 02:26:03;;;;;;;10.50;9.87;;;;;;;2.32;100.00;93263.19;5089472;28;20232;-69
2022/11/28 02:28:37;;;;;;;10.03;9.43;;;;;;;2.22;100.00;93270.59;5079351;28;20189;-69
2022/11/28 02:31:08;;;;;;;9.90;9.50;;;;;;;2.43;100.00;93265.06;5087682;28;20245;-68
2022/11/28 02:33:47;;;;;;;10.60;10.13;;;;;;;2.38;100.00;93262.34;5089893;28;20184;-69
2022/11/28 02:36:30;;;;;;;10.70;10.30;;;;;;;2.26;100.00;93253.72;5089599;28;20262;-69
2022/11/28 02:39:14;;;;;;;10.43;9.97;;;;;;;2.31;100.00;93256.44;5089632;28;20189;-69
2022/11/28 02:41:50;;;;;;;10.77;10.27;;;;;;;2.18;100.00;93238.56;5096487;28;20237;-69
2022/11/28 02:44:18;;;;;;;9.97;9.47;;;;;;;2.26;100.00;93251.94;5088095;28;20228;-69
2022/11/28 02:47:04;;;;;;;10.13;9.73;;;;;;;2.40;100.00;93257.75;5089031;28;20213;-68
2022/11/28 02:49:45;;;;;;;11.93;11.43;;;;;;;2.26;100.00;93258.88;5089107;28;20248;-68
2022/11/28 02:52:16;;;;;;;11.43;10.80;;;;;;;2.18;100.00;93243.72;5088786;28;20184;-68
2022/11/28 02:54:43;;;;;;;10.33;9.83;;;;;;;2.42;100.00;93253.97;5089499;28;20361;-69
2022/11/28 02:57:09;;;;;;;9.70;9.30;;;;;;;2.30;100.00;93254.88;5089064;28;20184;-69
2022/11/28 02:59:37;;;;;;;11.67;11.07;;;;;;;2.32;100.00;93266.53;5088909;28;20183;-69
2022/11/28 03:02:18;;;;;;;11.20;10.70;;;;;;;2.34;100.00;93259.41;5089154;28;20196;-69
2022/11/28 03:04:54;;;;;;;10.87;10.47;;;;;;;2.23;100.00;93262.66;5088817;28;20289;-69
2022/11/28 03:07:28;;;;;;;11.37;10.87;;;;;;;2.14;100.00;93255.41;5083645;28;20180;-69
2022/11/28 03:10:29;;;;;;;11.27;10.77;;;;;;;2.24;100.00;93268.63;5088547;28;20224;-68
2022/11/28 03:13:36;;;;;;;11.30;10.80;;;;;;;2.26;100.00;93267.38;5088917;28;20200;-69
2022/11/28 03:16:01;;;;;;;10.57;10.07;;;;;;;2.33;100.00;93267.34;5061358;28;20233;-68
2022/11/28 03:18:49;;;;;;;11.50;11.00;;;;;;;2.34;100.00;93268.91;5089242;28;20185;-68
2022/11/28 03:21:29;;;;;;;11.00;10.60;;;;;;;2.24;100.00;93266.81;5087035;28;20218;-67
2022/11/28 03:24:01;;;;;;;11.17;10.67;;;;;;;2.29;100.00;93266.19;5089384;28;20184;-68
2022/11/28 03:26:40;;;;;;;11.13;10.63;;;;;;;2.24;100.00;93268.63;5088005;28;20231;-69
2022/11/28 03:29:33;;;;;;;9.73;9.33;;;;;;;2.21;100.00;93267.22;5089179;28;20185;-69
2022/11/28 03:32:08;;;;;;;10.77;10.37;;;;;;;2.29;100.00;93273.91;5088215;28;20822;-68
2022/11/28 03:34:39;;;;;;;11.47;10.87;;;;;;;2.28;100.00;93269.75;5088399;28;20192;-69
2022/11/28 03:37:12;;;;;;;10.73;10.33;;;;;;;2.29;100.00;93266.19;5088695;28;20201;-69
2022/11/28 03:39:45;;;;;;;11.40;10.90;;;;;;;2.26;100.00;93269.97;5088454;28;20901;-69
2022/11/28 03:42:23;;;;;;;10.23;9.83;;;;;;;2.45;100.00;93273.34;5088596;28;20177;-68
2022/11/28 03:45:01;;;;;;;10.63;10.13;;;;;;;2.30;100.00;93273.72;5088414;28;20236;-68
2022/11/28 03:47:33;;;;;;;10.73;10.33;;;;;;;2.21;100.00;93261.31;5084945;28;20189;-69
2022/11/28 03:50:05;;;;;;;11.30;10.73;;;;;;;2.39;100.00;93269.06;5088399;28;20287;-69
2022/11/28 03:52:42;;;;;;;10.90;10.40;;;;;;;2.31;100.00;93269.31;5087504;28;20240;-68
2022/11/28 03:55:16;;;;;;;11.57;11.00;;;;;;;2.28;100.00;93269.75;5089306;28;20220;-68
2022/11/28 03:58:09;;;;;;;11.67;10.97;;;;;;;2.33;100.00;93267.34;5081975;28;20188;-68
2022/11/28 04:00:41;;;;;;;11.40;10.80;;;;;;;2.14;100.00;93252.84;5087380;28;20209;-69
2022/11/28 04:03:32;;;;;;;11.50;11.00;;;;;;;2.18;100.00;93266.88;5082193;28;20200;-68
2022/11/28 04:06:06;;;;;;;10.80;10.30;;;;;;;2.29;100.00;93266.19;5082303;28;20221;-69
2022/11/28 04:08:39;;;;;;;12.10;11.43;;;;;;;2.25;100.00;93250.38;5092541;28;20218;-69
2022/11/28 04:11:49;;;;;;;12.03;11.43;;;;;;;2.24;100.00;93258.31;5091806;28;20232;-69
2022/11/28 04:14:24;;;;;;;11.13;10.63;;;;;;;2.28;100.00;93256.88;5083855;28;20195;-69
2022/11/28 04:17:01;;;;;;;10.33;9.83;;;;;;;1.81;100.00;93193.13;5090969;28;20219;-68
2022/11/28 04:19:37;;;;;;;12.43;11.73;;;;;;;2.11;100.00;93250.69;5091643;28;20891;-68
2022/11/28 04:22:24;;;;;;;11.47;10.77;;;;;;;2.33;100.00;93259.59;5092115;28;20214;-68
2022/11/28 04:24:57;;;;;;;11.70;11.07;;;;;;;2.13;100.00;93259.00;5091980;28;20224;-68
2022/11/28 04:27:30;;;;;;;12.33;11.57;;;;;;;2.25;100.00;93259.88;5092175;28;20245;-69
2022/11/28 04:29:59;;;;;;;12.07;11.37;;;;;;;2.24;100.00;93263.47;5080199;28;20280;-69
2022/11/28 04:32:28;;;;;;;11.30;10.67;;;;;;;2.27;100.00;93268.97;5091523;28;20177;-69
2022/11/28 04:35:04;;;;;;;11.07;10.40;;;;;;;2.30;100.00;93268.56;5091478;28;20240;-68
2022/11/28 04:37:32;;;;;;;11.23;10.73;;;;;;;2.32;100.00;93271.69;5091549;28;20191;-68
2022/11/28 04:39:59;;;;;;;10.70;10.20;;;;;;;2.34;100.00;93259.41;5091658;28;20221;-67
2022/11/28 04:42:38;;;;;;;11.60;11.10;;;;;;;2.27;100.00;93275.91;5089677;28;20185;-66
2022/11/28 04:45:15;;;;;;;10.83;10.33;;;;;;;2.15;100.00;93269.88;5091282;28;20258;-66
2022/11/28 04:47:41;;;;;;;11.13;10.67;;;;;;;2.22;100.00;93273.19;5090819;28;20253;-68
2022/11/28 04:50:07;;;;;;;11.00;10.57;;;;;;;2.25;100.00;93277.91;5090978;28;20472;-67
2022/11/28 04:52:54;;;;;;;10.67;10.17;;;;;;;2.24;100.00;93278.91;5091045;28;20221;-67
2022/11/28 04:55:45;;;;;;;11.40;10.87;;;;;;;2.12;100.00;93276.22;5086822;28;20299;-67
2022/11/28 04:58:24;;;;;;;11.27;10.77;;;;;;;2.26;100.00;93279.47;5089933;28;20196;-67
2022/11/28 05:00:53;;;;;;;11.63;11.13;;;;;;;2.24;100.00;93281.50;5084930;28;20254;-66
2022/11/28 05:03:19;;;;;;;11.73;11.13;;;;;;;2.15;100.00;93269.88;5090677;28;20212;-67
2022/11/28 05:05:49;;;;;;;11.90;11.20;;;;;;;2.30;100.00;93285.78;5090643;28;20224;-67
2022/11/28 05:08:16;;;;;;;12.33;11.53;;;;;;;2.26;100.00;93287.19;5091227;28;20181;-67
2022/11/28 05:10:42;;;;;;;11.17;10.57;;;;;;;2.28;100.00;93287.78;5090006;28;20220;-67
2022/11/28 05:13:07;;;;;;;11.63;11.13;;;;;;;2.35;100.00;93285.94;5091043;28;20238;-66
2022/11/28 05:15:32;;;;;;;11.53;11.03;;;;;;;2.39;100.00;93282.75;5090020;28;20257;-65
2022/11/28 05:17:58;;;;;;;11.50;11.00;;;;;;;2.40;100.00;93284.31;5090876;28;20185;-66
2022/11/28 05:20:24;;;;;;;11.67;11.07;;;;;;;2.22;100.00;93265.44;5090609;28;20228;-69
2022/11/28 05:22:49;;;;;;;11.60;10.90;;;;;;;2.28;100.00;93280.06;5089788;28;20180;-68
2022/11/28 05:25:15;;;;;;;11.83;11.10;;;;;;;2.18;100.00;93269.47;5090597;28;20311;-66
2022/11/28 05:27:40;;;;;;;11.47;10.93;;;;;;;2.36;100.00;93266.91;5086299;28;20276;-67
2022/11/28 05:30:06;;;;;;;11.40;10.80;;;;;;;2.14;100.00;93263.13;5087415;28;20303;-67
2022/11/28 05:32:32;;;;;;;12.83;12.10;;;;;;;2.16;100.00;93266.31;5086263;28;20181;-67
2022/11/28 05:34:57;;;;;;;13.17;12.40;;;;;;;2.25;100.00;93275.34;5088230;28;20239;-67
2022/11/28 05:37:24;;;;;;;11.60;11.00;;;;;;;2.19;100.00;93258.94;5088409;28;20169;-66
2022/11/28 05:39:50;;;;;;;12.23;11.53;;;;;;;2.19;100.00;93265.88;5085787;28;20217;-67
2022/11/28 05:42:15;;;;;;;12.80;12.00;;;;;;;2.20;100.00;93278.53;5089180;28;20176;-67
2022/11/28 05:44:40;;;;;;;13.13;12.23;;;;;;;2.20;100.00;93270.00;5088850;28;20315;-67
2022/11/28 05:47:06;;;;;;;13.53;12.73;;;;;;;2.34;100.00;93274.84;5089023;28;20184;-67
2022/11/28 05:49:31;;;;;;;15.00;13.73;;;;;;;2.15;100.00;93264.72;5088536;28;20504;-66
2022/11/28 05:51:56;;;;;;;12.87;12.13;;;;;;;2.19;100.00;93260.72;5083707;28;20176;-67
2022/11/28 05:54:22;;;;;;;11.63;11.03;;;;;;;2.26;100.00;93272.53;5088483;28;20176;-67
2022/11/28 05:56:47;;;;;;;13.53;12.63;;;;;;;2.21;100.00;93272.38;5089614;28;20210;-68
2022/11/28 05:59:13;;;;;;;15.87;14.27;;;;;;;2.06;100.00;93250.53;5089479;28;20197;-67
2022/11/28 06:01:38;;;;;;;15.27;13.80;;;;;;;2.17;100.00;93265.28;5088066;28;20243;-67
2022/11/28 06:04:03;;;;;;;19.33;16.30;;;;;;;2.15;100.00;93262.16;5088413;28;20192;-69
2022/11/28 06:06:31;;;;;;;16.47;14.90;;;;;;;2.22;100.00;93247.41;5089110;28;20239;-68
2022/11/28 06:08:57;;;;;;;14.40;13.33;;;;;;;2.18;100.00;93254.00;5096422;28;20207;-67
2022/11/28 06:11:25;;;;;;;14.47;13.27;;;;;;;2.32;100.00;93258.03;5089308;28;20228;-66
2022/11/28 06:13:51;;;;;;;14.43;13.33;;;;;;;2.39;100.00;93261.31;5084685;28;20196;-64
2022/11/28 06:16:19;;;;;;;13.77;12.87;;;;;;;2.43;100.00;93258.09;5089574;28;20281;-66
2022/11/28 06:18:44;;;;;;;13.73;12.77;;;;;;;2.54;100.00;93261.75;5089519;28;20188;-66
2022/11/28 06:21:12;;;;;;;12.30;11.60;;;;;;;2.70;100.00;93266.38;5089049;28;20220;-66
2022/11/28 06:23:38;;;;;;;14.00;13.00;;;;;;;2.52;100.00;93251.66;5086124;28;20234;-65
2022/11/28 06:26:12;;;;;;;13.47;12.40;;;;;;;2.57;100.00;93254.41;5082748;28;20236;-66
2022/11/28 06:28:39;;;;;;;14.07;13.07;;;;;;;2.53;100.00;93260.19;5080825;28;20199;-68
2022/11/28 06:31:09;;;;;;;14.67;13.57;;;;;;;2.57;100.00;93263.94;5087833;28;20213;-67
2022/11/28 06:33:35;;;;;;;17.50;15.63;;;;;;;2.47;100.00;93271.38;5087070;28;20215;-67
2022/11/28 06:36:03;;;;;;;25.40;18.10;;;;;;;2.53;100.00;93263.56;5087837;28;20267;-67
2022/11/28 06:38:29;;;;;;;28.30;20.07;;;;;;;2.47;100.00;93269.59;5087824;28;20195;-68
2022/11/28 06:40:56;;;;;;;24.07;17.60;;;;;;;2.45;100.00;93260.47;5086866;28;20243;-68
2022/11/28 06:43:22;;;;;;;32.83;19.10;;;;;;;2.51;100.00;93246.72;5087912;28;20307;-67
2022/11/28 06:45:47;;;;;;;40.93;20.80;;;;;;;2.54;100.00;93248.88;5086225;28;20224;-68
2022/11/28 06:48:14;;;;;;;33.37;19.50;;;;;;;2.51;100.00;93244.16;5087333;28;20200;-66
2022/11/28 06:50:39;;;;;;;17.40;15.43;;;;;;;2.53;100.00;93242.16;5086848;28;20221;-67
2022/11/28 06:53:04;;;;;;;14.60;13.33;;;;;;;2.63;100.00;93247.63;5084563;28;20199;-66
2022/11/28 06:55:30;;;;;;;13.47;12.57;;;;;;;2.65;100.00;93250.75;5102062;28;20263;-66
2022/11/28 06:57:55;;;;;;;13.00;12.13;;;;;;;2.58;100.00;93250.03;5086684;28;20168;-66
2022/11/28 07:00:20;;;;;;;14.47;13.57;;;;;;;2.64;100.00;93251.75;5086616;28;20216;-67
2022/11/28 07:02:46;;;;;;;13.70;12.70;;;;;;;2.60;100.00;93253.19;5088928;28;20193;-68
2022/11/28 07:05:11;;;;;;;16.20;14.80;;;;;;;2.49;100.00;93253.91;5085362;28;20239;-67
2022/11/28 07:07:36;;;;;;;14.73;13.53;;;;;;;2.47;100.00;93253.31;5087372;28;20193;-66
2022/11/28 07:10:02;;;;;;;15.50;14.10;;;;;;;2.50;100.00;93255.47;5086949;28;20232;-70
2022/11/28 07:12:28;;;;;;;16.10;14.63;;;;;;;2.13;100.00;93194.63;5080613;28;20200;-69
2022/11/28 07:14:53;;;;;;;15.40;14.00;;;;;;;2.59;100.00;93249.03;5086702;28;20221;-68
2022/11/28 07:17:18;;;;;;;15.27;13.87;;;;;;;2.54;99.64;93239.38;5086966;28;20185;-67
2022/11/28 07:19:44;;;;;;;14.60;13.30;;;;;;;2.56;99.96;93252.84;5079349;28;20236;-69
2022/11/28 07:22:10;;;;;;;13.90;12.70;;;;;;;2.70;99.87;93243.97;5086834;28;20192;-69
2022/11/28 07:24:36;;;;;;;14.47;13.47;;;;;;;2.71;99.71;93255.03;5087493;28;20203;-69
2022/11/28 07:27:01;;;;;;;19.70;18.27;;;;;;;2.75;99.68;93258.78;5088369;28;20209;-68
2022/11/28 07:29:34;;;;;;;15.17;13.97;;;;;;;2.65;99.19;93246.38;5080548;28;20191;-68
2022/11/28 07:31:59;;;;;;;15.23;13.83;;;;;;;2.73;99.10;93261.56;5079166;28;20205;-67
2022/11/28 07:34:25;;;;;;;14.97;13.77;;;;;;;2.72;99.48;93248.91;5084092;28;20203;-68
2022/11/28 07:36:50;;;;;;;15.37;14.13;;;;;;;2.79;99.14;93252.97;5086533;28;20189;-67
2022/11/28 07:39:16;;;;;;;15.60;14.40;;;;;;;2.70;99.29;93248.31;5088887;28;20234;-66
2022/11/28 07:41:42;;;;;;;15.17;13.87;;;;;;;2.56;98.93;93227.06;5087699;28;20204;-67
2022/11/28 07:44:10;;;;;;;15.70;14.27;;;;;;;2.85;100.00;93257.25;5087038;28;20236;-66
2022/11/28 07:46:36;;;;;;;15.60;14.13;;;;;;;2.92;98.02;93249.47;5090570;28;20227;-67
2022/11/28 07:49:01;;;;;;;16.97;15.13;;;;;;;2.98;98.24;93253.75;5089032;28;20221;-67
2022/11/28 07:51:32;;;;;;;15.80;14.40;;;;;;;2.97;99.18;93249.59;5086240;28;20228;-67
2022/11/28 07:53:58;;;;;;;14.60;13.50;;;;;;;3.12;98.29;93257.75;5088253;28;20240;-67
2022/11/28 07:56:27;;;;;;;14.93;13.83;;;;;;;3.17;97.62;93250.94;5079611;28;20235;-68
2022/11/28 07:58:52;;;;;;;15.30;14.03;;;;;;;3.39;96.38;93243.50;5083574;28;20189;-68
2022/11/28 08:01:23;;;;;;;17.00;15.57;;;;;;;3.30;96.63;93250.75;5086159;28;20296;-67
2022/11/28 08:03:50;;;;;;;14.23;13.23;;;;;;;3.25;95.84;93247.28;5090906;28;20200;-68
2022/11/28 08:06:19;;;;;;;16.60;14.33;;;;;;;3.39;96.85;93251.25;5089021;28;20227;-67
2022/11/28 08:08:48;;;;;;;15.50;14.33;;;;;;;3.44;95.95;93253.94;5088852;28;20196;-67
2022/11/28 08:11:15;;;;;;;15.20;14.10;;;;;;;3.55;94.91;93247.25;5090754;28;20288;-67
2022/11/28 08:13:41;;;;;;;14.90;13.90;;;;;;;3.46;95.17;93253.72;5084722;28;20197;-68
2022/11/28 08:16:10;;;;;;;14.97;13.77;;;;;;;3.37;95.19;93247.28;5087560;28;20258;-68
2022/11/28 08:18:35;;;;;;;14.17;13.23;;;;;;;3.52;94.91;93251.06;5079879;28;20185;-68
2022/11/28 08:21:05;;;;;;;15.50;14.30;;;;;;;3.49;95.08;93241.16;5089559;28;20230;-67
2022/11/28 08:23:35;;;;;;;14.17;13.07;;;;;;;3.49;94.63;93246.34;5086703;28;20185;-66
2022/11/28 08:26:01;;;;;;;14.23;13.13;;;;;;;3.46;94.34;93230.50;5089886;28;20252;-67
2022/11/28 08:28:27;;;;;;;13.17;12.20;;;;;;;3.32;94.25;93227.31;5090767;28;20223;-70
2022/11/28 08:30:53;;;;;;;14.47;13.47;;;;;;;3.22;95.53;93225.25;5084626;28;20217;-64
2022/11/28 08:33:18;;;;;;;13.87;12.77;;;;;;;3.50;93.87;93245.34;5088646;28;20193;-67
2022/11/28 08:35:43;;;;;;;12.80;12.00;;;;;;;3.48;94.84;93242.19;5085304;28;20250;-65
2022/11/28 08:38:09;;;;;;;14.97;13.87;;;;;;;3.61;93.65;93247.16;5088773;28;20664;-67
2022/11/28 08:40:34;;;;;;;14.73;13.50;;;;;;;3.49;94.18;93223.09;5090367;28;20288;-66
2022/11/28 08:42:59;;;;;;;14.80;13.60;;;;;;;3.65;93.86;93235.38;5086418;28;20906;-67
2022/11/28 08:45:25;;;;;;;13.33;12.33;;;;;;;3.62;93.09;93241.00;5090442;28;20292;-67
2022/11/28 08:47:50;;;;;;;15.60;14.40;;;;;;;3.59;94.43;93228.53;5086991;28;20219;-68
2022/11/28 08:50:15;;;;;;;15.07;13.93;;;;;;;3.41;94.06;93226.00;5086583;28;20224;-70
2022/11/28 08:52:41;;;;;;;13.83;12.93;;;;;;;3.19;95.61;93224.94;5089869;28;20236;-70
2022/11/28 08:55:06;;;;;;;14.07;13.07;;;;;;;3.01;96.24;93222.38;5087136;28;20236;-71
2022/11/28 08:57:32;;;;;;;13.47;12.57;;;;;;;3.07;97.29;93230.03;5090703;28;20240;-70
2022/11/28 08:59:57;;;;;;;13.03;12.23;;;;;;;3.31;97.17;93228.31;5089451;28;20239;-69
2022/11/28 09:02:22;;;;;;;12.97;12.07;;;;;;;3.46;96.32;93227.91;5090272;28;20227;-71
2022/11/28 09:04:48;;;;;;;13.57;12.67;;;;;;;3.71;100.00;93215.63;5088952;28;20221;-71
2022/11/28 09:07:13;;;;;;;12.83;12.07;;;;;;;3.81;95.49;93216.69;5090364;28;20719;-72
2022/11/28 09:09:38;;;;;;;13.60;12.60;;;;;;;3.96;94.59;93217.03;5090012;28;20239;-71
2022/11/28 09:12:04;;;;;;;12.93;12.13;;;;;;;4.02;93.07;93198.03;5090237;28;20181;-72
2022/11/28 09:14:29;;;;;;;13.00;12.10;;;;;;;4.02;92.26;93208.38;5089187;28;20267;-70
2022/11/28 09:16:55;;;;;;;12.93;12.13;;;;;;;4.00;93.15;93210.38;5090246;28;20181;-70
2022/11/28 09:19:20;;;;;;;12.67;11.97;;;;;;;3.66;93.72;93194.88;5089620;28;20248;-71
2022/11/28 09:21:45;;;;;;;12.90;12.17;;;;;;;3.74;93.93;93204.84;5089953;28;20191;-70
2022/11/28 09:24:12;;;;;;;12.87;12.07;;;;;;;3.67;94.37;93197.25;5090447;28;20189;-69
2022/11/28 09:26:38;;;;;;;12.30;11.53;;;;;;;3.85;93.81;93197.13;5089101;28;20307;-70
2022/11/28 09:29:04;;;;;;;11.70;11.10;;;;;;;4.11;93.58;93188.19;5089325;28;20197;-71
2022/11/28 09:31:29;;;;;;;12.47;11.67;;;;;;;4.25;92.25;93189.53;5086340;28;20217;-71
2022/11/28 09:33:55;;;;;;;12.60;11.70;;;;;;;4.17;92.71;93174.34;5089952;28;20263;-70
2022/11/28 09:36:22;;;;;;;12.87;12.17;;;;;;;4.14;92.64;93180.75;5086533;28;20221;-70
2022/11/28 09:38:48;;;;;;;11.83;11.13;;;;;;;4.13;92.95;93148.19;5090237;28;20194;-70
2022/11/28 09:41:41;;;;;;;12.70;12.00;;;;;;;4.31;92.62;93176.47;5089385;28;20221;-69
2022/11/28 09:44:28;;;;;;;11.57;10.97;;;;;;;4.26;92.62;93163.44;5087638;28;20246;-70
2022/11/28 09:46:58;;;;;;;13.13;12.23;;;;;;;4.18;92.19;93166.38;5088095;28;20958;-70
2022/11/28 09:49:57;;;;;;;12.60;11.90;;;;;;;4.09;93.20;93156.59;5087013;28;20173;-69
2022/11/28 09:52:31;;;;;;;13.57;12.53;;;;;;;4.11;93.83;93144.25;5089793;28;20177;-69
2022/11/28 09:55:24;;;;;;;14.10;13.10;;;;;;;3.97;95.01;93148.84;5082258;28;20230;-67
2022/11/28 09:57:52;;;;;;;13.00;12.00;;;;;;;3.82;95.15;93151.09;5088656;28;21537;-67
2022/11/28 10:00:21;;;;;;;11.87;11.17;;;;;;;3.84;96.11;93143.94;5088263;28;20233;-67
2022/11/28 10:02:59;;;;;;;14.17;13.33;;;;;;;4.09;95.13;93141.91;5088929;28;20764;-68
2022/11/28 10:05:41;;;;;;;13.10;12.10;;;;;;;4.33;93.71;93134.88;5088790;28;20236;-68
2022/11/28 10:08:19;;;;;;;11.90;11.10;;;;;;;4.41;94.06;93142.28;5119372;28;20256;-69
2022/11/28 10:10:54;;;;;;;12.70;12.00;;;;;;;4.25;93.32;93130.09;5086374;28;20211;-69
2022/11/28 10:13:28;;;;;;;13.03;12.17;;;;;;;4.11;94.60;93139.09;5097521;28;20188;-69
2022/11/28 10:16:02;;;;;;;13.93;13.03;;;;;;;4.07;94.73;93146.50;5087839;28;20228;-69
2022/11/28 10:18:47;;;;;;;13.73;12.93;;;;;;;3.78;94.88;93144.81;5105422;28;20196;-69
2022/11/28 10:21:35;;;;;;;13.00;12.20;;;;;;;3.58;93.99;93143.56;5088529;28;20216;-68
2022/11/28 10:24:04;;;;;;;13.17;12.27;;;;;;;3.40;95.08;93143.63;5083783;28;20184;-70
2022/11/28 10:26:36;;;;;;;13.47;12.47;;;;;;;3.39;94.68;93134.34;5092106;28;20533;-68
2022/11/28 10:29:21;;;;;;;14.93;13.83;;;;;;;3.42;95.30;93116.63;5089303;28;20181;-69
2022/11/28 10:31:49;;;;;;;12.97;12.17;;;;;;;3.60;94.47;93129.41;5088787;28;20205;-70
2022/11/28 10:34:34;;;;;;;12.73;11.90;;;;;;;3.65;95.36;93124.38;5095649;28;20274;-69
2022/11/28 10:37:05;;;;;;;11.63;11.00;;;;;;;3.65;96.10;93113.25;5088377;28;20252;-69
2022/11/28 10:39:30;;;;;;;12.20;11.40;;;;;;;3.68;95.96;93113.59;5088668;28;20191;-69
2022/11/28 10:42:13;;;;;;;12.83;12.03;;;;;;;3.81;95.86;93112.59;5090932;28;20204;-69
2022/11/28 10:44:52;;;;;;;13.17;12.27;;;;;;;4.07;95.84;93112.13;5077049;28;20238;-70
2022/11/28 10:47:52;;;;;;;12.30;11.60;;;;;;;4.56;93.07;93112.34;5089238;28;20207;-69
2022/11/28 10:50:17;;;;;;;11.70;11.00;;;;;;;4.78;91.69;93120.25;5062471;28;20232;-69
2022/11/28 10:53:01;;;;;;;15.70;14.70;;;;;;;5.05;90.70;93110.13;5084282;28;20185;-68
2022/11/28 10:55:38;;;;;;;13.53;12.77;;;;;;;5.07;87.95;93114.09;5087912;28;20239;-69
2022/11/28 10:58:21;;;;;;;13.50;12.70;;;;;;;5.04;88.83;93119.72;5087944;28;20881;-68
2022/11/28 11:00:48;;;;;;;12.00;11.23;;;;;;;5.21;88.52;93117.16;5078183;28;20279;-69
2022/11/28 11:03:17;;;;;;;12.40;11.70;;;;;;;5.29;87.16;93109.00;5088664;28;20234;-68
2022/11/28 11:05:42;;;;;;;11.80;11.10;;;;;;;5.34;87.25;93102.09;5088307;28;20246;-67
2022/11/28 11:08:22;;;;;;;11.37;10.77;;;;;;;5.14;86.84;93103.59;5088763;28;20176;-68
2022/11/28 11:10:49;;;;;;;11.20;10.70;;;;;;;5.11;87.08;93104.03;5087470;28;20240;-68
2022/11/28 11:13:16;;;;;;;11.97;11.37;;;;;;;5.03;89.64;93101.84;5089845;28;20223;-69
2022/11/28 11:15:44;;;;;;;13.80;12.90;;;;;;;5.15;89.84;93094.81;5091798;28;20231;-69
2022/11/28 11:18:26;;;;;;;13.03;12.13;;;;;;;5.16;87.48;93096.34;5085527;28;20187;-68
2022/11/28 11:21:15;;;;;;;12.00;11.20;;;;;;;5.05;88.69;93089.44;5085692;28;20216;-69
2022/11/28 11:23:42;;;;;;;12.17;11.33;;;;;;;5.04;89.77;93082.72;5083084;28;20189;-69
2022/11/28 11:26:23;;;;;;;11.77;11.17;;;;;;;5.08;88.84;93079.41;5092937;28;20267;-68
2022/11/28 11:28:50;;;;;;;13.50;12.60;;;;;;;5.12;89.35;93072.75;5092516;28;20180;-68
2022/11/28 11:31:19;;;;;;;12.93;11.97;;;;;;;5.03;89.56;93076.75;5092107;28;20242;-68
2022/11/28 11:33:45;;;;;;;12.63;11.83;;;;;;;5.17;89.89;93079.84;5098324;28;20196;-68
2022/11/28 11:36:27;;;;;;;13.00;12.23;;;;;;;5.17;89.86;93072.06;5091259;28;20247;-69
2022/11/28 11:39:04;;;;;;;13.43;12.33;;;;;;;5.42;88.68;93070.66;5094834;28;20195;-68